Time;durP1;ratioP1;P1;durP2;ratioP2;P2;SDS_P1;SDS_P2;PMS_P1;PMS_P2;Temp;Humidity;BMP_temperature;BMP_pressure;BME280_temperature;BME280_humidity;BME280_pressure;Samples;Min_cycle;Max_cycle;Signal;HPM_P1;HPM_P2
2022/08/06 00:01:33;;;;;;;2.35;1.20;;;15.00;99.90;;;;;;4840188;29;20026;-38
2022/08/06 00:04:05;;;;;;;6.03;1.52;;;14.90;99.90;;;;;;4843065;29;20022;-39
2022/08/06 00:06:31;;;;;;;2.90;0.60;;;15.00;99.90;;;;;;4843613;29;20708;-34
2022/08/06 00:08:59;;;;;;;3.65;0.70;;;15.00;99.90;;;;;;4843011;29;20034;-38
2022/08/06 00:11:25;;;;;;;2.60;0.70;;;15.00;99.90;;;;;;4852156;29;20029;-38
2022/08/06 00:13:51;;;;;;;2.10;0.70;;;14.90;99.90;;;;;;4851132;29;20510;-40
2022/08/06 00:16:16;;;;;;;4.32;0.80;;;14.90;99.90;;;;;;4842904;29;20500;-33
2022/08/06 00:18:42;;;;;;;2.03;1.13;;;14.90;99.90;;;;;;4845896;29;20033;-38
2022/08/06 00:21:08;;;;;;;2.80;0.80;;;14.90;99.90;;;;;;4843723;29;20038;-40
2022/08/06 00:23:34;;;;;;;2.33;1.75;;;14.90;99.90;;;;;;4855289;29;20494;-39
2022/08/06 00:25:59;;;;;;;1.00;0.88;;;14.90;99.90;;;;;;4842048;29;20387;-37
2022/08/06 00:28:25;;;;;;;4.00;0.88;;;14.90;99.90;;;;;;4845740;29;20045;-36
2022/08/06 00:30:51;;;;;;;4.03;1.17;;;14.90;99.90;;;;;;4846755;29;20743;-38
2022/08/06 00:33:17;;;;;;;6.18;1.20;;;14.90;99.90;;;;;;4843015;29;20284;-37
2022/08/06 00:35:44;;;;;;;9.10;1.70;;;14.80;99.90;;;;;;4850705;29;20075;-36
2022/08/06 00:38:10;;;;;;;5.80;1.30;;;14.70;99.90;;;;;;4840036;29;20030;-35
2022/08/06 00:40:36;;;;;;;0.70;0.70;;;14.60;99.90;;;;;;4844114;29;20082;-37
2022/08/06 00:43:03;;;;;;;7.20;1.42;;;14.60;99.90;;;;;;4843053;29;20045;-37
2022/08/06 00:45:30;;;;;;;6.63;0.93;;;14.60;99.90;;;;;;4852175;29;20022;-36
2022/08/06 00:48:14;;;;;;;3.60;0.95;;;14.50;99.90;;;;;;4850953;29;20538;-35
2022/08/06 00:50:59;;;;;;;4.75;0.98;;;14.50;99.90;;;;;;4847019;29;20041;-43
2022/08/06 00:53:24;;;;;;;4.63;1.33;;;14.50;99.90;;;;;;4852625;29;20048;-33
2022/08/06 00:55:50;;;;;;;4.03;1.00;;;14.50;99.90;;;;;;4845271;29;20898;-38
2022/08/06 00:58:16;;;;;;;2.05;1.25;;;14.50;99.90;;;;;;4847596;29;20034;-35
2022/08/06 01:00:41;;;;;;;4.32;1.13;;;14.50;99.90;;;;;;4846633;29;20119;-41
2022/08/06 01:03:07;;;;;;;5.00;1.13;;;14.50;99.90;;;;;;4846188;29;20026;-35
2022/08/06 01:05:33;;;;;;;1.98;1.08;;;14.40;99.90;;;;;;4839639;29;20499;-36
2022/08/06 01:07:58;;;;;;;2.80;0.98;;;14.40;99.90;;;;;;4841227;29;20030;-36
2022/08/06 01:10:24;;;;;;;3.65;1.23;;;14.40;99.90;;;;;;4846504;29;20026;-32
2022/08/06 01:12:50;;;;;;;1.55;0.90;;;14.40;99.90;;;;;;4845596;29;20030;-34
2022/08/06 01:15:15;;;;;;;1.20;1.00;;;14.40;99.90;;;;;;4839614;29;20034;-36
2022/08/06 01:17:58;;;;;;;1.55;0.93;;;14.40;99.90;;;;;;4848573;29;20069;-37
2022/08/06 01:20:49;;;;;;;1.85;1.20;;;14.40;99.90;;;;;;4851079;29;20041;-31
2022/08/06 01:23:21;;;;;;;2.78;1.50;;;14.30;99.90;;;;;;4838007;29;20068;-37
2022/08/06 01:25:52;;;;;;;2.60;1.20;;;14.30;99.90;;;;;;4850965;29;20030;-34
2022/08/06 01:28:25;;;;;;;2.47;1.60;;;14.20;99.90;;;;;;4849106;29;20502;-34
2022/08/06 01:30:56;;;;;;;2.75;0.95;;;14.20;99.90;;;;;;4850208;29;20030;-34
2022/08/06 01:33:36;;;;;;;3.50;1.13;;;14.10;99.90;;;;;;4846536;29;20030;-41
2022/08/06 01:36:07;;;;;;;4.28;1.30;;;14.10;99.90;;;;;;4845154;29;20046;-34
2022/08/06 01:38:40;;;;;;;5.15;1.08;;;14.10;99.90;;;;;;4847365;29;20033;-36
2022/08/06 01:41:11;;;;;;;1.95;1.08;;;14.00;99.90;;;;;;4848937;29;20034;-37
2022/08/06 01:43:39;;;;;;;6.95;1.13;;;14.00;99.90;;;;;;4844710;29;20040;-31
2022/08/06 01:46:07;;;;;;;3.70;0.95;;;14.00;99.90;;;;;;4854366;29;20029;-51
2022/08/06 01:48:35;;;;;;;1.88;0.73;;;13.90;99.90;;;;;;4850958;29;20381;-40
2022/08/06 01:51:07;;;;;;;4.05;1.02;;;13.90;99.90;;;;;;4849075;29;20142;-36
2022/08/06 01:53:36;;;;;;;4.53;0.98;;;13.90;99.90;;;;;;4843820;29;20037;-38
2022/08/06 01:56:05;;;;;;;3.17;0.90;;;13.90;99.90;;;;;;4845699;29;20067;-36
2022/08/06 01:58:41;;;;;;;7.50;1.42;;;13.90;99.90;;;;;;4846027;29;20562;-47
2022/08/06 02:01:10;;;;;;;4.93;1.00;;;13.90;99.90;;;;;;4834508;29;20078;-47
2022/08/06 02:03:42;;;;;;;1.30;0.80;;;13.80;99.90;;;;;;4849619;29;20519;-37
2022/08/06 02:06:12;;;;;;;2.78;1.08;;;13.80;99.90;;;;;;4851344;29;20037;-33
2022/08/06 02:08:38;;;;;;;4.25;0.77;;;13.80;99.90;;;;;;4855939;29;20554;-37
2022/08/06 02:11:07;;;;;;;3.58;1.85;;;13.80;99.90;;;;;;4846504;29;20120;-37
2022/08/06 02:13:36;;;;;;;4.40;1.27;;;13.80;99.90;;;;;;4852219;29;20620;-38
2022/08/06 02:16:04;;;;;;;6.10;1.23;;;13.70;99.90;;;;;;4846129;29;20030;-32
2022/08/06 02:18:33;;;;;;;4.85;1.63;;;13.70;99.90;;;;;;4849933;29;20222;-38
2022/08/06 02:21:02;;;;;;;0.70;0.70;;;13.70;99.90;;;;;;4845453;29;20391;-32
2022/08/06 02:23:29;;;;;;;4.28;0.98;;;13.70;99.90;;;;;;4842921;29;20146;-36
2022/08/06 02:25:55;;;;;;;4.93;0.85;;;13.70;99.90;;;;;;4842252;29;20029;-35
2022/08/06 02:28:24;;;;;;;3.03;0.85;;;13.70;99.90;;;;;;4825989;29;20026;-31
2022/08/06 02:30:53;;;;;;;2.38;1.15;;;13.70;99.90;;;;;;4837252;29;20159;-36
2022/08/06 02:33:18;;;;;;;1.15;0.70;;;13.60;99.90;;;;;;4844470;29;20504;-32
2022/08/06 02:36:07;;;;;;;3.58;0.95;;;13.60;99.90;;;;;;4843403;29;20026;-38
2022/08/06 02:38:48;;;;;;;3.50;0.80;;;13.60;99.90;;;;;;4840849;29;20034;-40
2022/08/06 02:41:34;;;;;;;4.00;1.00;;;13.60;99.90;;;;;;4845814;29;20120;-35
2022/08/06 02:44:09;;;;;;;3.67;1.08;;;13.50;99.90;;;;;;4847065;29;20106;-34
2022/08/06 02:46:44;;;;;;;1.20;0.98;;;13.50;99.90;;;;;;4843131;29;20033;-36
2022/08/06 02:49:16;;;;;;;1.30;1.13;;;13.50;99.90;;;;;;4842283;29;20033;-36
2022/08/06 02:51:51;;;;;;;1.23;0.90;;;13.40;99.90;;;;;;4849032;29;20038;-37
2022/08/06 02:54:31;;;;;;;1.55;0.90;;;13.40;99.90;;;;;;4852073;29;20606;-47
2022/08/06 02:57:02;;;;;;;5.00;1.05;;;13.40;99.90;;;;;;4847081;29;20060;-35
2022/08/06 02:59:31;;;;;;;3.53;0.65;;;13.40;99.90;;;;;;4849378;29;20566;-38
2022/08/06 03:02:02;;;;;;;3.28;1.00;;;13.40;99.90;;;;;;4839282;29;20444;-38
2022/08/06 03:04:30;;;;;;;2.75;0.82;;;13.40;99.90;;;;;;4843263;29;20132;-36
2022/08/06 03:06:58;;;;;;;3.47;1.10;;;13.30;99.90;;;;;;4846515;29;20428;-37
2022/08/06 03:09:24;;;;;;;4.43;1.27;;;13.40;99.90;;;;;;4826723;29;20502;-37
2022/08/06 03:11:52;;;;;;;4.57;1.02;;;13.40;99.90;;;;;;4842979;29;20034;-36
2022/08/06 03:14:21;;;;;;;1.02;0.77;;;13.40;99.90;;;;;;4842298;29;20542;-36
2022/08/06 03:16:48;;;;;;;0.57;0.57;;;13.40;99.90;;;;;;4849200;29;20030;-36
2022/08/06 03:19:15;;;;;;;3.63;0.98;;;13.40;99.90;;;;;;4848705;29;20070;-39
2022/08/06 03:21:42;;;;;;;2.05;0.68;;;13.40;99.90;;;;;;4838595;29;20022;-38
2022/08/06 03:24:09;;;;;;;2.70;1.42;;;13.40;99.90;;;;;;4843940;29;20038;-47
2022/08/06 03:26:36;;;;;;;1.05;0.70;;;13.50;99.90;;;;;;4842321;29;20545;-34
2022/08/06 03:29:04;;;;;;;7.63;1.00;;;13.50;99.90;;;;;;4844144;29;20018;-32
2022/08/06 03:31:30;;;;;;;2.15;1.05;;;13.50;99.90;;;;;;4841576;29;21232;-41
2022/08/06 03:33:58;;;;;;;3.72;1.33;;;13.40;99.90;;;;;;4850512;29;20026;-39
2022/08/06 03:36:24;;;;;;;2.50;1.00;;;13.50;99.90;;;;;;4842842;29;20022;-39
2022/08/06 03:38:55;;;;;;;4.10;1.83;;;13.40;99.90;;;;;;4837257;29;20030;-33
2022/08/06 03:41:21;;;;;;;2.13;1.40;;;13.40;99.90;;;;;;4844735;29;20124;-33
2022/08/06 03:43:46;;;;;;;2.25;1.30;;;13.40;99.90;;;;;;4829648;29;20599;-36
2022/08/06 03:46:15;;;;;;;3.50;1.65;;;13.40;99.90;;;;;;4858741;29;20115;-37
2022/08/06 03:48:42;;;;;;;1.30;1.20;;;13.40;99.90;;;;;;4857043;29;20399;-36
2022/08/06 03:51:17;;;;;;;5.95;1.38;;;13.50;99.90;;;;;;4856481;29;20030;-37
2022/08/06 03:53:44;;;;;;;3.72;1.25;;;13.50;99.90;;;;;;4851857;29;20030;-39
2022/08/06 03:56:19;;;;;;;1.80;1.13;;;13.50;99.90;;;;;;4850882;29;20034;-38
2022/08/06 03:58:47;;;;;;;9.32;1.30;;;13.50;99.90;;;;;;4847510;29;20106;-38
2022/08/06 04:01:19;;;;;;;4.45;1.02;;;13.50;99.90;;;;;;4859314;29;20030;-32
2022/08/06 04:03:46;;;;;;;6.28;1.33;;;13.50;99.90;;;;;;4846120;29;20034;-34
2022/08/06 04:06:12;;;;;;;2.58;0.77;;;13.50;99.90;;;;;;4837880;29;20564;-38
2022/08/06 04:08:40;;;;;;;5.25;1.27;;;13.40;99.90;;;;;;4855653;29;20040;-40
2022/08/06 04:11:07;;;;;;;2.83;0.88;;;13.40;99.90;;;;;;4848968;29;20029;-36
2022/08/06 04:13:33;;;;;;;2.42;1.10;;;13.40;99.90;;;;;;4843887;29;20059;-41
2022/08/06 04:16:00;;;;;;;1.70;0.68;;;13.40;99.90;;;;;;4847487;29;20022;-38
2022/08/06 04:18:31;;;;;;;0.60;0.60;;;13.40;99.90;;;;;;4847323;29;20033;-37
2022/08/06 04:21:01;;;;;;;2.25;0.80;;;13.40;99.90;;;;;;4848861;29;20018;-37
2022/08/06 04:23:26;;;;;;;3.55;0.93;;;13.40;99.90;;;;;;4848140;29;20390;-41
2022/08/06 04:25:56;;;;;;;4.20;1.40;;;13.40;99.90;;;;;;4832639;29;20030;-35
2022/08/06 04:28:25;;;;;;;1.92;1.27;;;13.40;99.90;;;;;;4851990;29;20521;-38
2022/08/06 04:30:53;;;;;;;6.80;0.82;;;13.40;99.90;;;;;;4843397;29;20071;-36
2022/08/06 04:33:20;;;;;;;;;;;13.40;99.90;;;;;;4846327;29;20097;-38
2022/08/06 04:35:46;;;;;;;4.32;0.82;;;13.40;99.90;;;;;;4845523;29;19912;-39
2022/08/06 04:38:14;;;;;;;1.65;0.73;;;13.30;99.90;;;;;;4852118;29;20025;-36
2022/08/06 04:40:40;;;;;;;4.57;0.90;;;13.40;99.90;;;;;;4844227;29;20124;-38
2022/08/06 04:43:08;;;;;;;3.70;0.75;;;13.40;99.90;;;;;;4836935;29;20100;-39
2022/08/06 04:45:35;;;;;;;1.05;0.80;;;13.40;99.90;;;;;;4846438;29;20026;-37
2022/08/06 04:48:03;;;;;;;4.75;1.15;;;13.40;99.90;;;;;;4850800;29;20531;-39
2022/08/06 04:50:31;;;;;;;0.60;0.60;;;13.40;99.90;;;;;;4842009;29;20191;-32
2022/08/06 04:53:12;;;;;;;4.38;1.13;;;13.50;99.90;;;;;;4845235;29;20076;-38
2022/08/06 04:55:39;;;;;;;4.40;0.95;;;13.50;99.90;;;;;;4843748;29;20033;-43
2022/08/06 04:58:07;;;;;;;6.95;1.42;;;13.60;99.90;;;;;;4841948;29;20030;-32
2022/08/06 05:00:40;;;;;;;3.30;0.80;;;13.60;99.90;;;;;;4808450;29;20050;-38
2022/08/06 05:03:05;;;;;;;4.28;0.98;;;13.80;99.90;;;;;;4839170;29;20063;-36
2022/08/06 05:05:37;;;;;;;1.30;0.60;;;13.80;99.90;;;;;;4835910;29;20026;-37
2022/08/06 05:08:04;;;;;;;1.92;0.85;;;13.80;99.90;;;;;;4834679;29;20120;-38
2022/08/06 05:10:52;;;;;;;1.02;0.93;;;13.90;99.90;;;;;;4833740;29;20563;-35
2022/08/06 05:13:20;;;;;;;4.28;0.93;;;13.90;99.90;;;;;;4833836;29;20033;-40
2022/08/06 05:15:53;;;;;;;1.25;0.77;;;14.00;99.90;;;;;;4833783;29;20491;-38
2022/08/06 05:18:26;;;;;;;4.70;1.00;;;14.00;99.90;;;;;;4833897;29;20030;-39
2022/08/06 05:20:55;;;;;;;0.85;0.70;;;14.10;99.90;;;;;;4836878;29;20048;-32
2022/08/06 05:23:27;;;;;;;2.15;1.13;;;14.20;99.90;;;;;;4834125;29;20029;-34
2022/08/06 05:25:53;;;;;;;7.28;1.27;;;14.20;99.90;;;;;;4835129;29;20500;-33
2022/08/06 05:28:19;;;;;;;1.95;0.85;;;14.30;99.90;;;;;;4837478;29;20480;-32
2022/08/06 05:30:49;;;;;;;1.52;0.70;;;14.40;99.90;;;;;;4833847;29;20053;-36
2022/08/06 05:33:31;;;;;;;2.17;0.95;;;14.40;99.90;;;;;;4838173;29;20029;-36
2022/08/06 05:36:01;;;;;;;4.10;0.85;;;14.50;99.90;;;;;;4838457;29;20502;-41
2022/08/06 05:38:27;;;;;;;1.40;0.80;;;14.60;99.90;;;;;;4840889;29;20547;-36
2022/08/06 05:40:55;;;;;;;1.92;0.60;;;14.70;99.90;;;;;;4836253;29;20480;-41
2022/08/06 05:43:21;;;;;;;9.35;1.05;;;14.70;99.90;;;;;;4838504;29;20514;-40
2022/08/06 05:45:49;;;;;;;2.10;1.00;;;14.80;99.90;;;;;;4837722;29;20026;-42
2022/08/06 05:48:18;;;;;;;1.35;0.50;;;14.80;99.90;;;;;;4838684;29;20097;-38
2022/08/06 05:50:55;;;;;;;3.67;0.60;;;14.90;99.90;;;;;;4840178;29;20041;-37
2022/08/06 05:53:36;;;;;;;3.65;1.00;;;15.00;99.90;;;;;;4838976;29;20142;-36
2022/08/06 05:56:10;;;;;;;4.53;1.10;;;15.10;99.90;;;;;;4837991;29;20374;-37
2022/08/06 05:58:41;;;;;;;0.73;0.60;;;15.20;99.90;;;;;;4839066;29;20041;-36
2022/08/06 06:01:07;;;;;;;5.07;1.00;;;15.30;99.90;;;;;;4823005;29;20116;-38
2022/08/06 06:03:34;;;;;;;4.95;0.60;;;15.40;99.90;;;;;;4836904;29;20475;-34
2022/08/06 06:06:01;;;;;;;4.60;0.90;;;15.50;99.90;;;;;;4840456;29;20030;-39
2022/08/06 06:08:27;;;;;;;4.30;0.90;;;15.60;99.90;;;;;;4848701;29;20098;-38
2022/08/06 06:10:53;;;;;;;1.48;0.47;;;15.70;99.90;;;;;;4840496;29;20040;-37
2022/08/06 06:13:21;;;;;;;3.58;0.93;;;15.80;99.90;;;;;;4843374;29;20478;-36
2022/08/06 06:16:29;;;;;;;5.82;1.13;;;15.90;99.90;;;;;;4851099;29;20482;-40
2022/08/06 06:19:27;;;;;;;1.58;0.60;;;16.00;99.90;;;;;;4842949;29;20052;-37
2022/08/06 06:22:17;;;;;;;4.20;0.93;;;16.20;99.90;;;;;;4839855;29;20403;-35
2022/08/06 06:25:10;;;;;;;3.65;0.90;;;16.30;99.90;;;;;;4839435;29;20022;-37
2022/08/06 06:27:39;;;;;;;2.03;0.52;;;16.40;99.90;;;;;;4843914;29;20507;-35
2022/08/06 06:30:07;;;;;;;4.55;0.90;;;16.60;99.90;;;;;;4849384;29;20109;-47
2022/08/06 06:32:48;;;;;;;2.55;0.73;;;16.80;99.90;;;;;;4858083;29;20384;-33
2022/08/06 06:35:33;;;;;;;6.65;1.00;;;17.10;99.90;;;;;;4846401;29;20073;-32
2022/08/06 06:38:19;;;;;;;1.23;0.50;;;17.30;99.90;;;;;;4846808;29;20484;-30
2022/08/06 06:41:00;;;;;;;4.97;1.13;;;17.50;99.90;;;;;;4844632;29;20119;-38
2022/08/06 06:43:55;;;;;;;1.52;0.82;;;17.80;99.90;;;;;;4840156;29;20053;-37
2022/08/06 06:46:46;;;;;;;1.13;0.57;;;18.30;99.90;;;;;;4840587;29;20030;-35
2022/08/06 06:49:24;;;;;;;0.50;0.50;;;18.60;99.90;;;;;;4843386;29;20513;-38
2022/08/06 06:51:55;;;;;;;2.38;0.57;;;18.80;99.90;;;;;;4838078;29;20056;-41
2022/08/06 06:54:28;;;;;;;3.58;0.45;;;18.80;99.90;;;;;;4850324;29;20030;-40
2022/08/06 06:56:56;;;;;;;2.65;0.60;;;19.00;99.90;;;;;;4849484;29;20022;-36
2022/08/06 06:59:33;;;;;;;2.75;0.40;;;19.40;99.90;;;;;;4848675;29;20475;-34
2022/08/06 07:02:01;;;;;;;0.63;0.50;;;20.20;99.90;;;;;;4842995;29;20027;-33
2022/08/06 07:04:27;;;;;;;;;;;20.60;99.90;;;;;;4849269;29;20101;-36
2022/08/06 07:06:55;;;;;;;4.03;0.53;;;20.80;99.90;;;;;;4853588;29;19912;-39
2022/08/06 07:09:23;;;;;;;4.65;0.98;;;20.80;99.90;;;;;;4843875;29;20968;-37
2022/08/06 07:11:51;;;;;;;2.60;0.45;;;20.80;99.90;;;;;;4839316;29;20026;-36
2022/08/06 07:14:20;;;;;;;1.73;0.90;;;20.90;99.80;;;;;;4828275;29;20105;-39
2022/08/06 07:16:46;;;;;;;2.25;0.47;;;20.40;99.90;;;;;;4848397;29;20030;-39
2022/08/06 07:19:13;;;;;;;2.80;1.08;;;20.10;99.90;;;;;;4838766;29;20464;-45
2022/08/06 07:21:40;;;;;;;0.60;0.40;;;19.90;99.90;;;;;;4846816;29;20037;-39
2022/08/06 07:24:07;;;;;;;6.70;0.57;;;20.10;99.90;;;;;;4850317;29;20448;-36
2022/08/06 07:26:34;;;;;;;0.85;0.43;;;20.30;99.90;;;;;;4852796;29;20057;-34
2022/08/06 07:29:00;;;;;;;1.25;0.45;;;20.20;99.90;;;;;;4848811;29;20065;-53
2022/08/06 07:31:27;;;;;;;5.72;1.02;;;20.10;99.90;;;;;;4829979;29;20065;-37
2022/08/06 07:33:54;;;;;;;2.63;0.77;;;20.00;99.90;;;;;;4840675;29;20090;-38
2022/08/06 07:36:22;;;;;;;0.50;0.40;;;19.80;99.90;;;;;;4845010;29;20521;-37
2022/08/06 07:38:49;;;;;;;2.17;0.57;;;19.60;99.90;;;;;;4841243;29;20030;-37
2022/08/06 07:41:16;;;;;;;1.23;0.95;;;19.60;99.90;;;;;;4836920;29;20109;-41
2022/08/06 07:43:48;;;;;;;1.13;0.35;;;19.60;99.90;;;;;;4843318;29;20881;-40
2022/08/06 07:46:19;;;;;;;2.38;0.50;;;19.40;99.90;;;;;;4846315;29;20557;-35
2022/08/06 07:48:54;;;;;;;3.03;1.00;;;19.40;99.90;;;;;;4837334;29;20593;-33
2022/08/06 07:51:23;;;;;;;4.45;0.63;;;19.50;99.90;;;;;;4841452;29;20041;-37
2022/08/06 07:53:50;;;;;;;3.08;0.95;;;19.40;99.90;;;;;;4843940;29;20038;-39
2022/08/06 07:56:17;;;;;;;0.52;0.28;;;19.50;99.90;;;;;;4853075;29;20042;-33
2022/08/06 07:58:44;;;;;;;0.63;0.63;;;19.60;99.90;;;;;;4847692;29;20030;-34
2022/08/06 08:01:12;;;;;;;0.70;0.22;;;19.70;99.90;;;;;;4840503;29;20033;-37
2022/08/06 08:06:25;;;;;;;1.13;0.40;;;19.60;99.90;;;;;;4845028;29;20169;-38
2022/08/06 08:08:58;;;;;;;9.48;0.63;;;19.60;99.90;;;;;;4839114;29;20483;-37
2022/08/06 08:11:25;;;;;;;2.40;0.70;;;19.80;99.90;;;;;;4843158;29;20026;-33
2022/08/06 08:13:55;;;;;;;4.20;1.10;;;20.00;99.90;;;;;;4830256;29;20061;-36
2022/08/06 08:16:22;;;;;;;6.15;2.60;;;20.00;99.90;;;;;;4837069;29;20472;-37
2022/08/06 08:18:48;;;;;;;1.30;0.47;;;20.10;99.90;;;;;;4846065;29;20057;-43
2022/08/06 08:21:15;;;;;;;2.03;0.52;;;20.30;99.90;;;;;;4847173;29;20121;-41
2022/08/06 08:23:42;;;;;;;0.40;0.20;;;20.40;99.90;;;;;;4837842;29;20460;-38
2022/08/06 08:26:07;;;;;;;1.58;0.50;;;20.50;99.80;;;;;;4831075;29;20109;-36
2022/08/06 08:28:34;;;;;;;2.13;0.80;;;20.70;99.60;;;;;;4842429;29;20159;-38
2022/08/06 08:31:01;;;;;;;2.78;0.60;;;20.70;99.20;;;;;;4852610;29;20507;-38
2022/08/06 08:33:28;;;;;;;;;;;21.00;99.10;;;;;;4827003;29;20113;-39
2022/08/06 08:35:54;;;;;;;5.18;0.60;;;21.20;98.30;;;;;;4839761;29;19931;-34
2022/08/06 08:38:20;;;;;;;1.60;0.43;;;21.40;98.60;;;;;;4839989;29;20034;-37
2022/08/06 08:40:47;;;;;;;0.63;0.38;;;21.50;98.40;;;;;;4839362;29;20026;-39
2022/08/06 08:43:16;;;;;;;;;;;21.60;98.00;;;;;;4823579;29;20034;-34
2022/08/06 08:45:44;;;;;;;1.00;0.40;;;21.80;98.00;;;;;;4840630;29;20395;-34
2022/08/06 08:48:12;;;;;;;0.60;0.30;;;22.10;97.90;;;;;;4841804;29;20030;-36
2022/08/06 08:50:42;;;;;;;1.73;0.68;;;22.60;97.00;;;;;;4849322;29;20034;-41
2022/08/06 08:53:14;;;;;;;0.93;0.35;;;22.50;96.10;;;;;;4840366;29;20394;-35
2022/08/06 08:55:40;;;;;;;6.95;0.55;;;22.30;96.10;;;;;;4842155;29;20053;-35
2022/08/06 08:58:12;;;;;;;0.40;0.40;;;21.80;96.40;;;;;;4843223;29;20086;-35
2022/08/06 09:00:39;;;;;;;1.15;0.50;;;21.30;97.50;;;;;;4840371;29;20052;-37
2022/08/06 09:03:06;;;;;;;1.65;0.30;;;21.40;97.30;;;;;;4839320;29;20536;-32
2022/08/06 09:05:33;;;;;;;1.93;0.50;;;21.20;97.00;;;;;;4841043;29;20029;-35
2022/08/06 09:08:01;;;;;;;2.00;0.80;;;21.10;97.30;;;;;;4844104;29;20653;-37
2022/08/06 09:10:27;;;;;;;3.22;0.60;;;21.00;97.10;;;;;;4846051;29;20025;-43
2022/08/06 09:12:53;;;;;;;0.98;0.45;;;20.90;97.10;;;;;;4840277;29;20904;-38
2022/08/06 09:15:18;;;;;;;0.60;0.47;;;20.60;98.00;;;;;;4840334;29;20030;-39
2022/08/06 09:17:46;;;;;;;0.20;0.20;;;20.60;98.40;;;;;;4840333;29;20508;-36
2022/08/06 09:20:12;;;;;;;8.18;0.50;;;21.00;98.10;;;;;;4840132;29;20053;-47
2022/08/06 09:22:37;;;;;;;3.90;0.85;;;21.30;97.50;;;;;;4857237;29;20036;-41
2022/08/06 09:25:03;;;;;;;3.28;0.85;;;21.50;97.20;;;;;;4846576;29;20476;-36
2022/08/06 09:27:34;;;;;;;1.05;0.70;;;21.20;97.40;;;;;;4830366;29;20108;-39
2022/08/06 09:30:04;;;;;;;1.98;0.55;;;21.20;97.80;;;;;;4845888;29;20041;-39
2022/08/06 09:32:45;;;;;;;1.02;0.50;;;21.70;96.80;;;;;;4844737;29;20551;-40
2022/08/06 09:35:22;;;;;;;6.22;0.55;;;21.80;96.10;;;;;;4839558;29;20110;-38
2022/08/06 09:37:50;;;;;;;0.38;0.38;;;21.30;96.50;;;;;;4844099;29;20029;-38
2022/08/06 09:40:17;;;;;;;;;;;21.40;96.50;;;;;;4853324;29;20042;-38
2022/08/06 09:42:44;;;;;;;;;;;22.20;96.00;;;;;;4840461;29;20378;-38
2022/08/06 09:45:14;;;;;;;0.75;0.40;;;23.40;94.50;;;;;;4839608;29;19963;-38
2022/08/06 09:47:41;;;;;;;0.38;0.38;;;24.40;93.70;;;;;;4845551;29;20491;-38
2022/08/06 09:50:07;;;;;;;2.07;0.50;;;24.60;93.20;;;;;;4843896;29;20036;-39
2022/08/06 09:52:33;;;;;;;2.13;0.35;;;24.80;93.10;;;;;;4848912;29;20082;-37
2022/08/06 09:54:59;;;;;;;3.40;0.30;;;24.50;92.70;;;;;;4844595;29;20025;-40
2022/08/06 09:57:39;;;;;;;1.80;0.30;;;24.30;92.40;;;;;;4848864;29;20033;-37
2022/08/06 10:00:07;;;;;;;1.73;0.52;;;24.10;92.70;;;;;;4848946;29;20279;-41
2022/08/06 10:02:34;;;;;;;0.20;0.20;;;24.30;92.60;;;;;;4846991;29;20033;-31
2022/08/06 10:05:10;;;;;;;0.65;0.40;;;24.40;92.50;;;;;;4847566;29;20052;-37
2022/08/06 10:07:37;;;;;;;0.70;0.43;;;24.30;92.50;;;;;;4840688;29;20056;-40
2022/08/06 10:10:04;;;;;;;2.00;0.40;;;24.20;92.90;;;;;;4843046;29;20034;-33
2022/08/06 10:12:30;;;;;;;1.13;0.32;;;24.20;92.40;;;;;;4837703;29;20552;-50
2022/08/06 10:14:56;;;;;;;0.20;0.20;;;24.30;92.60;;;;;;4837867;29;20030;-41
2022/08/06 10:17:23;;;;;;;0.30;0.30;;;24.70;92.00;;;;;;4843992;29;20030;-37
2022/08/06 10:20:10;;;;;;;0.35;0.35;;;24.80;91.80;;;;;;4839336;29;20479;-35
2022/08/06 10:22:48;;;;;;;0.70;0.30;;;24.80;91.60;;;;;;4838025;29;20486;-40
2022/08/06 10:25:15;;;;;;;4.97;0.50;;;24.60;90.90;;;;;;4844956;29;20032;-31
2022/08/06 10:27:41;;;;;;;0.75;0.47;;;24.20;91.00;;;;;;4845246;29;20468;-38
2022/08/06 10:30:10;;;;;;;0.33;0.30;;;23.70;91.90;;;;;;4822319;29;20089;-35
2022/08/06 10:32:53;;;;;;;1.73;0.50;;;23.90;92.00;;;;;;4824931;29;20046;-37
2022/08/06 10:35:22;;;;;;;0.73;0.45;;;24.30;91.50;;;;;;4839000;29;20038;-37
2022/08/06 10:37:56;;;;;;;2.03;0.20;;;24.40;91.50;;;;;;4839340;29;20022;-43
2022/08/06 10:40:22;;;;;;;0.40;0.40;;;24.40;91.50;;;;;;4843445;29;20494;-41
2022/08/06 10:42:49;;;;;;;2.10;0.17;;;24.00;92.10;;;;;;4837206;29;20399;-36
2022/08/06 10:45:15;;;;;;;0.47;0.30;;;24.00;92.00;;;;;;4845207;29;20471;-41
2022/08/06 10:47:45;;;;;;;3.30;0.30;;;23.90;91.90;;;;;;4854544;29;20041;-40
2022/08/06 10:50:14;;;;;;;2.10;0.30;;;23.60;92.10;;;;;;4838774;29;20652;-35
2022/08/06 10:52:41;;;;;;;1.45;0.30;;;23.40;92.30;;;;;;4844188;29;20566;-34
2022/08/06 10:55:09;;;;;;;1.30;0.68;;;23.50;92.90;;;;;;4841938;29;20479;-40
2022/08/06 10:57:34;;;;;;;0.50;0.50;;;23.30;92.70;;;;;;4843706;29;20367;-42
2022/08/06 11:00:02;;;;;;;0.43;0.40;;;23.30;93.10;;;;;;4847195;29;20026;-38
2022/08/06 11:02:49;;;;;;;1.27;0.45;;;23.50;93.00;;;;;;4839045;29;20026;-40
2022/08/06 11:05:16;;;;;;;;;;;23.60;93.10;;;;;;4839290;29;20399;-40
2022/08/06 11:07:51;;;;;;;0.63;0.40;;;23.70;92.90;;;;;;4839079;29;20440;-37
2022/08/06 11:10:44;;;;;;;14.18;1.20;;;24.00;92.90;;;;;;4850613;29;20085;-39
2022/08/06 11:13:34;;;;;;;0.75;0.35;;;24.00;92.20;;;;;;4838427;29;20038;-41
2022/08/06 11:16:00;;;;;;;0.38;0.30;;;23.40;92.80;;;;;;4839635;29;20430;-41
2022/08/06 11:18:27;;;;;;;0.75;0.38;;;22.70;93.50;;;;;;4822882;29;20098;-38
2022/08/06 11:20:52;;;;;;;1.03;0.50;;;22.20;94.10;;;;;;4839640;29;20655;-35
2022/08/06 11:23:18;;;;;;;0.25;0.22;;;21.80;94.20;;;;;;4843560;29;20097;-39
2022/08/06 11:25:46;;;;;;;2.08;0.50;;;21.60;94.30;;;;;;4849191;29;20037;-40
2022/08/06 11:28:18;;;;;;;1.95;1.45;;;21.40;94.70;;;;;;4845869;29;20029;-38
2022/08/06 11:30:50;;;;;;;0.55;0.30;;;21.10;95.10;;;;;;4846121;29;20027;-37
2022/08/06 11:33:19;;;;;;;4.35;0.70;;;21.00;95.50;;;;;;4843394;29;20034;-34
2022/08/06 11:35:48;;;;;;;1.27;0.47;;;21.30;95.30;;;;;;4838646;29;20483;-36
2022/08/06 11:38:35;;;;;;;1.05;0.45;;;21.60;95.20;;;;;;4840573;29;20025;-31
2022/08/06 11:41:07;;;;;;;0.82;0.45;;;22.00;95.00;;;;;;4837426;29;20059;-34
2022/08/06 11:44:05;;;;;;;0.93;0.47;;;22.00;94.50;;;;;;4821101;29;20042;-35
2022/08/06 11:46:38;;;;;;;0.60;0.40;;;21.90;94.60;;;;;;4849338;29;20017;-33
2022/08/06 11:49:23;;;;;;;2.03;0.55;;;21.80;94.80;;;;;;4846944;29;20538;-35
2022/08/06 11:51:58;;;;;;;0.65;0.30;;;21.40;95.10;;;;;;4854576;29;20478;-35
2022/08/06 11:54:33;;;;;;;0.70;0.35;;;21.20;95.20;;;;;;4850251;29;20558;-34
2022/08/06 11:57:00;;;;;;;0.43;0.43;;;21.00;94.10;;;;;;4840770;29;20497;-40
2022/08/06 11:59:25;;;;;;;1.57;0.77;;;20.80;94.60;;;;;;4850193;29;20626;-37
2022/08/06 12:01:51;;;;;;;3.05;0.55;;;20.60;94.60;;;;;;4837251;29;20038;-47
2022/08/06 12:04:35;;;;;;;2.00;0.68;;;20.60;95.10;;;;;;4835878;29;20022;-31
2022/08/06 12:07:21;;;;;;;1.60;0.40;;;20.70;95.10;;;;;;4842183;29;20448;-38
2022/08/06 12:09:56;;;;;;;0.47;0.47;;;21.10;94.70;;;;;;4840553;29;20091;-44
2022/08/06 12:12:25;;;;;;;2.58;0.52;;;21.80;94.50;;;;;;4840501;29;20510;-39
2022/08/06 12:14:52;;;;;;;2.58;0.50;;;22.20;94.40;;;;;;4869774;29;20071;-47
2022/08/06 12:17:19;;;;;;;2.47;0.43;;;22.80;94.30;;;;;;4838673;29;20536;-38
2022/08/06 12:19:47;;;;;;;0.95;0.30;;;23.20;93.80;;;;;;4840487;29;20487;-38
2022/08/06 12:22:14;;;;;;;0.30;0.30;;;23.40;93.70;;;;;;4840638;29;20224;-38
2022/08/06 12:24:44;;;;;;;1.02;0.60;;;23.50;93.30;;;;;;4850014;29;20033;-35
2022/08/06 12:27:11;;;;;;;2.10;0.60;;;23.20;93.00;;;;;;4842563;29;20455;-40
2022/08/06 12:29:38;;;;;;;0.85;0.57;;;22.70;92.90;;;;;;4850215;29;20056;-59
2022/08/06 12:32:24;;;;;;;2.17;0.43;;;22.20;93.60;;;;;;4841894;29;20026;-43
2022/08/06 12:34:51;;;;;;;1.00;0.40;;;22.30;93.70;;;;;;4845793;29;20058;-33
2022/08/06 12:37:18;;;;;;;1.17;0.30;;;22.50;93.40;;;;;;4845275;29;20022;-40
2022/08/06 12:42:30;;;;;;;0.60;0.30;;;23.00;93.30;;;;;;4841849;29;20526;-43
2022/08/06 12:44:57;;;;;;;0.47;0.40;;;23.10;93.20;;;;;;4844406;29;20037;-39
2022/08/06 12:47:25;;;;;;;0.63;0.50;;;23.40;93.30;;;;;;4843112;29;20106;-38
2022/08/06 12:49:52;;;;;;;0.85;0.40;;;23.50;92.90;;;;;;4848688;29;20523;-38
2022/08/06 12:52:21;;;;;;;1.38;0.50;;;23.70;93.00;;;;;;4854950;29;20029;-36
2022/08/06 12:54:47;;;;;;;0.98;0.38;;;23.90;92.40;;;;;;4846039;29;20483;-37
2022/08/06 12:57:27;;;;;;;2.78;0.70;;;23.80;92.30;;;;;;4854138;29;20035;-37
2022/08/06 12:59:54;;;;;;;2.08;0.80;;;23.60;92.70;;;;;;4846397;29;20034;-32
2022/08/06 13:02:23;;;;;;;4.07;0.90;;;23.20;92.90;;;;;;4847815;29;20471;-34
2022/08/06 13:07:36;;;;;;;0.40;0.40;;;22.10;93.10;;;;;;4840012;29;20033;-33
2022/08/06 13:10:09;;;;;;;1.08;0.50;;;21.70;93.30;;;;;;4839611;29;20038;-37
2022/08/06 13:12:35;;;;;;;1.15;0.68;;;22.00;93.00;;;;;;4839490;29;20030;-37